x

Buoy E01 - Central Maine Shelf (44032) Wave Buoy

6:04 - Tue 31st May 2016 All times are EDT. -4 hours from GMT.

  • Sig Wave height 3.6ft
  • Peak Period 4s
  • Wind
    16mph, 18mph gusts
  • Sea Temp 52°f
  • Ar Temp 59°f
  • Sea Pressure 1007.7mb
  • Buoy E01 - Central Maine Shelf
  • Buoy E01 - Central Maine Shelf

More Historic Weather Station data

Upgrade to MSW Pro to gain access to the past 30 days of data for over 8000 Wavebouys and Weather Stations around the globe.

Join Pro

Comparision Forecast

View Surf forecast
   
Ter 05/31 6:04 3.5ft 4s 16 18 mph 1007.7mb 52f 59f
5:04 3.5ft 4s 13 16 mph 1007.5mb 52f 58f
4:04 3.5ft 5s 16 18 mph 1007.7mb 52f 59f
3:04 3.5ft 5s 13 16 mph 1007.8mb 52f 58f
2:04 3ft 5s 16 18 mph 1008mb 52f 58f
1:04 3.5ft 5s 13 16 mph 1008.5mb 52f 58f
12:04 3ft 5s 11 13 mph 1008.7mb 52f 56f
11:04 3ft 6s 9
mph
1009mb 52f 55f
10:04 3.5ft 5s 9 11 mph 1009.3mb 52f 56f
9:04 3ft 5s 11 13 mph 1009.4mb 51f 56f
8:04 3ft 5s 9
mph
1009.5mb 51f 55f
7:04 3.5ft 5s 7 9 mph 1009.2mb 52f 54f
6:04 3.5ft 5s 9 11 mph 1008.9mb 52f 55f
5:04 3ft 5s 9
mph
1008.7mb 52f 55f
4:04 3.5ft 5s 7 9 mph 1008.6mb 51f 55f
3:04 3.5ft 4s 7 9 mph 1008.4mb 51f 55f
2:04 2.5ft 4s 11 13 mph 1008.2mb 51f 55f
1:04 2.5ft 4s 11 13 mph 1008.6mb 51f 55f
12:04 2.5ft 4s 9
mph
1008.8mb 52f 55f
Seg 05/30 11:04 2.5ft 4s 7
mph
1009.2mb 51f 55f
10:04 2ft 4s 9 11 mph 1009.6mb 52f 55f
9:04 2.5ft 5s 4 7 mph 1009.7mb 52f 56f
8:04 2.5ft 5s 9 11 mph 1009.7mb 52f 55f
7:04 2.5ft 5s 11 13 mph 1009.5mb 53f 54f
6:04 2.5ft 5s 9 11 mph 1010mb 53f 54f
5:04 2.5ft 8s 9 11 mph 1010.6mb 53f 54f
4:04 2.5ft 6s 11 13 mph 1010.9mb 53f 54f
3:04 2.5ft 6s 9
mph
1011.7mb 53f 54f
2:04 2ft 5s 7 9 mph 1012.5mb 52f 53f
1:04 2.5ft 5s 7
mph
1013.3mb 52f 53f
12:04 2.5ft 5s 4
mph
1013.8mb 51f 52f
11:04 2.5ft 5s 4 7 mph 1014mb 51f 52f
10:04 2.5ft 5s 2
mph
1014.7mb 52f 51f
9:04 2.5ft 5s 2
mph
1015.1mb 51f 51f
8:04 3ft 5s 2 4 mph 1015.4mb 51f 51f
7:04 3ft 6s 2 4 mph 1015.9mb 51f 51f
6:04 3ft 6s 2 4 mph 1016.1mb 51f 51f
5:04 3.5ft 6s 2
mph
1016mb 51f 50f
4:04 4ft 6s  -  2 mph 1016.4mb 51f 50f
3:04 3.5ft 5s 2 4 mph 1017.4mb 51f 50f
2:04 4ft 6s 2
mph
1018.2mb 51f 51f
1:04 4ft 6s 7
mph
1019mb 51f 50f
12:04 3.5ft 6s 7 9 mph 1019.9mb 51f 51f
Dom 05/29 11:04 3.5ft 5s 9
mph
1020.3mb 51f 50f
10:04 4.5ft 6s 11 13 mph 1021.1mb 51f 50f
9:04 4ft 5s 13 16 mph 1021mb 51f 50f
8:04 3.5ft 5s 11 13 mph 1021.5mb 51f 50f
7:04 4ft 5s 13 16 mph 1021.5mb 51f 50f
6:04 4ft 5s 16 18 mph 1021.6mb 52f 50f
5:04 4.5ft 5s 18 20 mph 1021.9mb 51f 50f
4:04 4ft 5s 18 20 mph 1022.3mb 52f 51f
3:04 4.5ft 5s 16 18 mph 1023mb 51f 51f
2:04 4.5ft 5s 16 20 mph 1023.4mb 51f 51f
1:04 4ft 5s 16 22 mph 1023.5mb 51f 51f
12:04 4.5ft 5s 16 20 mph 1023.7mb 51f 51f
11:04 3.5ft 5s 16 18 mph 1024.4mb 51f 51f
10:04 3.5ft 5s 16 18 mph 1024.1mb 51f 51f
9:04 3.5ft 5s 11 13 mph 1023.9mb 51f 51f
8:04 3ft 4s 13 16 mph 1023.5mb 51f 52f
7:04 3.5ft 4s 13 16 mph 1023.3mb 51f 53f
6:04 3ft 4s 13
mph
1022.6mb 51f 53f
5:04 3ft 4s 13 16 mph 1021.7mb 51f 53f
4:04 3.5ft 4s 16 18 mph 1021.4mb 51f 53f
3:04 3.5ft 3s 20 22 mph 1020.9mb 52f 52f
2:04 3ft 3s 18 22 mph 1021.2mb 52f 53f
1:04 3ft 3s 18 20 mph 1021.1mb 52f 53f
12:04 2.5ft 5s 18 22 mph 1020.5mb 53f 54f
Sáb 05/28 11:04 2ft 5s 16 18 mph 1020.1mb 53f 54f
10:04 2ft 5s 9 11 mph 1019.8mb 53f 55f
9:04 2ft 5s 9 11 mph 1019.5mb 53f 55f
8:04 2.5ft 5s 9
mph
1018.8mb 53f 55f
7:04 2ft 5s 13 16 mph 1018.2mb 53f 56f
6:04 2ft 5s 11 13 mph 1017.2mb 54f 57f
5:04 2ft 5s 7
mph
1016.3mb 54f 57f
4:04 2ft 5s 7 9 mph 1016.2mb 54f 58f
3:04 2.5ft 5s 9
mph
1016.1mb 54f 57f
2:04 2.5ft 5s 7
mph
1016.3mb 53f 56f
1:04 2.5ft 5s 7
mph
1016.6mb 53f 56f
12:04 2.5ft 5s 7 9 mph 1016.8mb 53f 55f
11:04 2.5ft 5s 7 9 mph 1016.8mb 52f 54f
10:04 3ft 5s 4 7 mph 1016.4mb 52f 54f
9:04 3ft 5s 4
mph
1016.7mb 52f 53f
8:04 3.5ft 5s 4 7 mph 1016.5mb 51f 52f
7:04 2.5ft 5s 4
mph
1016.3mb 51f 51f
6:04 2.5ft 5s 2
mph
1015.7mb 51f 51f
5:04 2.5ft 5s 2
mph
1015.1mb 51f 51f
4:04 2.5ft 5s 4 7 mph 1014.6mb 51f 50f
3:04 2.5ft 6s 7 9 mph 1015.4mb 51f 50f
2:04 2.5ft 6s 9 11 mph 1015.5mb 51f 50f
1:04 2ft 8s 2
mph
1014.9mb 51f 50f
12:04 2.5ft 5s 2
mph
1015.5mb 51f 51f